Time;durP1;ratioP1;P1;durP2;ratioP2;P2;SDS_P1;SDS_P2;PMS_P1;PMS_P2;Temp;Humidity;BMP_temperature;BMP_pressure;BME280_temperature;BME280_humidity;BME280_pressure;Samples;Min_cycle;Max_cycle;Signal;HPM_P1;HPM_P2
2021/12/20 07:22:49;;;;;;;;;;;;;;;0.80;74.69;97492.91;4196945;28;10413;-67
2021/12/20 07:24:51;;;;;;;;;;;;;;;0.80;74.54;97490.31;4198556;28;5654;-67
2021/12/20 07:26:53;;;;;;;;;;;;;;;0.84;74.50;97499.53;4187719;28;5796;-67
2021/12/20 07:28:55;;;;;;;;;;;;;;;0.88;73.92;97499.16;4182271;28;5850;-67
2021/12/20 07:30:56;;;;;;;;;;;;;;;0.83;73.72;97503.06;4194221;28;5638;-67
2021/12/20 07:32:58;;;;;;;;;;;;;;;0.79;73.87;97501.63;4191143;28;5715;-67
2021/12/20 07:35:00;;;;;;;;;;;;;;;0.84;73.36;97502.13;4188091;28;5790;-67
2021/12/20 07:37:01;;;;;;;;;;;;;;;0.82;73.50;97504.84;4186544;28;5762;-67
2021/12/20 07:39:05;;;;;;;;;;;;;;;0.85;73.40;97506.38;4182440;28;5653;-68
2021/12/20 07:41:24;;;;;;;;;;;;;;;0.89;73.78;97505.19;4165701;28;6570;-68
2021/12/20 07:43:26;;;;;;;;;;;;;;;0.84;73.54;97502.13;4198079;28;5820;-68
2021/12/20 07:45:28;;;;;;;;;;;;;;;0.86;72.84;97506.28;4193231;28;5643;-68
2021/12/20 07:47:30;;;;;;;;;;;;;;;0.68;73.12;97506.81;4179566;28;6087;-68
2021/12/20 07:49:33;;;;;;;;;;;;;;;0.81;73.59;97513.63;4180953;28;5721;-68
2021/12/20 07:51:36;;;;;;;;;;;;;;;0.97;72.77;97509.84;4179370;28;5666;-67
2021/12/20 07:53:38;;;;;;;;;;;;;;;1.05;72.84;97516.13;4192014;28;5876;-67
2021/12/20 07:55:40;;;;;;;;;;;;;;;1.08;71.17;97500.28;4181322;28;5777;-67
2021/12/20 07:57:41;;;;;;;;;;;;;;;0.81;69.70;97512.78;4190033;28;5709;-68
2021/12/20 07:59:43;;;;;;;;;;;;;;;0.85;71.23;97511.59;4194610;28;6386;-68
2021/12/20 08:01:44;;;;;;;;;;;;;;;0.92;70.40;97515.41;4182913;28;5816;-67
2021/12/20 08:03:46;;;;;;;;;;;;;;;0.82;69.84;97524.84;4195118;28;5647;-67
2021/12/20 08:05:48;;;;;;;;;;;;;;;0.65;68.30;97517.44;4196949;28;5715;-67
2021/12/20 08:07:50;;;;;;;;;;;;;;;0.30;69.34;97523.47;4193579;28;5862;-67
2021/12/20 08:09:52;;;;;;;;;;;;;;;0.32;68.10;97525.97;4180233;28;6780;-67
2021/12/20 08:11:54;;;;;;;;;;;;;;;0.06;68.61;97517.44;4180046;28;5812;-67
2021/12/20 08:13:56;;;;;;;;;;;;;;;0.29;70.06;97516.63;4181186;28;5726;-67
2021/12/20 08:15:58;;;;;;;;;;;;;;;0.18;69.11;97511.38;4189434;28;5708;-67
2021/12/20 08:17:59;;;;;;;;;;;;;;;0.25;68.55;97523.00;4183026;28;5748;-67
2021/12/20 08:20:02;;;;;;;;;;;;;;;0.28;69.27;97533.16;4181734;28;5738;-67
2021/12/20 08:22:04;;;;;;;;;;;;;;;-0.45;70.45;97525.41;4172319;28;5805;-67
2021/12/20 08:24:06;;;;;;;;;;;;;;;-0.04;70.69;97535.47;4178908;28;6396;-67
2021/12/20 08:26:08;;;;;;;;;;;;;;;0.17;70.16;97539.13;4171215;28;5803;-67
2021/12/20 08:28:10;;;;;;;;;;;;;;;0.33;70.14;97538.03;4169550;28;5760;-67
2021/12/20 08:30:12;;;;;;;;;;;;;;;0.34;69.92;97544.88;4169420;28;5765;-67
2021/12/20 08:32:14;;;;;;;;;;;;;;;0.45;69.79;97532.75;4170707;28;5899;-67
2021/12/20 08:34:16;;;;;;;;;;;;;;;0.54;70.04;97534.69;4170955;28;5760;-67
2021/12/20 08:36:18;;;;;;;;;;;;;;;0.56;69.96;97542.38;4176271;28;5749;-67
2021/12/20 08:38:20;;;;;;;;;;;;;;;0.58;70.16;97538.75;4169465;28;5733;-67
2021/12/20 08:40:22;;;;;;;;;;;;;;;0.65;69.69;97540.88;4170848;28;5753;-67
2021/12/20 08:42:24;;;;;;;;;;;;;;;0.52;69.87;97544.38;4171844;28;5893;-66
2021/12/20 08:44:25;;;;;;;;;;;;;;;0.52;69.79;97546.16;4186057;28;5836;-66
2021/12/20 08:46:27;;;;;;;;;;;;;;;0.25;69.77;97539.44;4183006;28;5720;-66
2021/12/20 08:48:31;;;;;;;;;;;;;;;-0.35;71.91;97549.78;4174102;28;5749;-66
2021/12/20 08:50:33;;;;;;;;;;;;;;;-0.25;71.90;97543.00;4183295;28;5699;-66
2021/12/20 08:52:36;;;;;;;;;;;;;;;0.11;71.52;97539.56;4167337;28;5947;-66
2021/12/20 08:54:38;;;;;;;;;;;;;;;0.28;70.12;97534.00;4180392;28;5712;-66
2021/12/20 08:56:40;;;;;;;;;;;;;;;0.16;70.50;97536.66;4170224;28;5915;-66
2021/12/20 08:58:41;;;;;;;;;;;;;;;0.38;70.25;97541.13;4170877;28;5739;-66
2021/12/20 09:00:43;;;;;;;;;;;;;;;0.32;70.02;97545.00;4181827;28;5718;-66
2021/12/20 09:02:45;;;;;;;;;;;;;;;0.30;69.90;97539.06;4172243;28;5883;-66
2021/12/20 09:04:49;;;;;;;;;;;;;;;0.46;69.95;97542.25;4187009;28;5051;-66
2021/12/20 09:06:51;;;;;;;;;;;;;;;0.64;69.72;97552.22;4175667;28;7786;-66
2021/12/20 09:08:55;;;;;;;;;;;;;;;0.66;69.50;97553.75;4177225;28;5917;-66
2021/12/20 09:10:57;;;;;;;;;;;;;;;0.67;69.06;97552.00;4169205;28;5737;-66
2021/12/20 09:13:00;;;;;;;;;;;;;;;0.72;69.73;97561.13;4173022;28;5751;-66
2021/12/20 09:15:05;;;;;;;;;;;;;;;0.80;69.50;97547.56;4185262;28;5705;-66
2021/12/20 09:17:06;;;;;;;;;;;;;;;0.69;69.22;97556.16;4186606;28;5849;-66
2021/12/20 09:19:08;;;;;;;;;;;;;;;0.61;69.61;97552.47;4157660;28;5773;-66
2021/12/20 09:21:11;;;;;;;;;;;;;;;0.65;69.90;97553.88;4160504;28;5093;-66
2021/12/20 09:23:13;;;;;;;;;;;;;;;0.62;69.67;97569.72;4172497;28;7858;-66
2021/12/20 09:25:19;;;;;;;;;;;;;;;0.56;69.95;97566.63;4178346;28;5776;-66
2021/12/20 09:27:22;;;;;;;;;;;;;;;0.60;70.19;97564.66;4178152;28;5777;-66
2021/12/20 09:29:23;;;;;;;;;;;;;;;0.61;70.39;97562.88;4168893;28;5748;-66
2021/12/20 09:31:25;;;;;;;;;;;;;;;0.58;70.35;97569.97;4167991;28;5793;-66
2021/12/20 09:33:27;;;;;;;;;;;;;;;0.55;70.51;97564.13;4169471;28;5765;-65
2021/12/20 09:35:28;;;;;;;;;;;;;;;0.60;70.51;97561.22;4179404;28;5711;-66
2021/12/20 09:37:30;;;;;;;;;;;;;;;0.65;70.59;97565.13;4185638;28;5826;-65
2021/12/20 09:39:33;;;;;;;;;;;;;;;0.72;70.77;97570.72;4154983;28;5878;-66
2021/12/20 09:43:46;;;;;;;;;;;;;;;0.75;70.80;97560.06;4176712;28;6121;-66
2021/12/20 09:45:49;;;;;;;;;;;;;;;0.75;70.67;97566.09;4157812;28;5750;-65
2021/12/20 09:47:51;;;;;;;;;;;;;;;0.74;70.92;97569.66;4169234;28;6457;-65
2021/12/20 09:49:53;;;;;;;;;;;;;;;0.84;70.89;97575.84;4176124;28;5757;-65
2021/12/20 09:51:59;;;;;;;;;;;;;;;0.90;70.78;97584.97;4172721;28;5868;-65
2021/12/20 09:54:00;;;;;;;;;;;;;;;0.97;70.79;97580.97;4183937;28;5720;-65
2021/12/20 09:56:03;;;;;;;;;;;;;;;0.80;71.06;97578.81;4176684;28;5703;-65
2021/12/20 09:58:06;;;;;;;;;;;;;;;0.53;71.33;97581.63;4151664;28;5884;-65
2021/12/20 10:00:11;;;;;;;;;;;;;;;0.72;71.25;97573.31;4181957;28;5900;-65
2021/12/20 10:02:13;;;;;;;;;;;;;;;0.78;70.76;97565.03;4167756;28;5748;-65
2021/12/20 10:04:15;;;;;;;;;;;;;;;0.56;71.38;97574.44;4173559;28;5787;-65
2021/12/20 10:06:17;;;;;;;;;;;;;;;0.73;70.99;97565.41;4186241;28;5810;-65
2021/12/20 10:08:21;;;;;;;;;;;;;;;0.63;70.92;97571.38;4173335;28;5843;-65
2021/12/20 10:10:44;;;;;;;;;;;;;;;0.72;71.35;97570.72;4167240;28;5745;-65
2021/12/20 10:12:49;;;;;;;;;;;;;;;0.58;71.39;97567.34;4176979;28;5712;-65
2021/12/20 10:14:59;;;;;;;;;;;;;;;0.56;71.46;97565.78;4186109;28;5736;-65
2021/12/20 10:17:05;;;;;;;;;;;;;;;0.42;71.86;97569.41;4177641;28;5708;-65
2021/12/20 10:19:27;;;;;;;;;;;;;;;0.69;71.30;97571.78;4184302;28;5724;-65
2021/12/20 10:21:38;;;;;;;;;;;;;;;0.38;71.70;97570.56;4166269;28;5878;-65
2021/12/20 10:23:44;;;;;;;;;;;;;;;0.63;71.33;97561.81;4166892;28;5741;-65
2021/12/20 10:25:49;;;;;;;;;;;;;;;0.68;71.23;97559.72;4180693;28;5714;-65
2021/12/20 10:27:52;;;;;;;;;;;;;;;0.81;71.27;97560.47;4179412;28;6403;-65
2021/12/20 10:29:53;;;;;;;;;;;;;;;0.82;71.25;97550.88;4185312;28;5755;-65
2021/12/20 10:31:56;;;;;;;;;;;;;;;0.75;71.22;97565.28;4185156;28;5823;-65
2021/12/20 10:34:02;;;;;;;;;;;;;;;0.92;71.15;97564.88;4183741;28;5712;-65
2021/12/20 10:36:13;;;;;;;;;;;;;;;0.88;71.25;97560.81;4179288;28;5849;-65
2021/12/20 10:38:37;;;;;;;;;;;;;;;0.98;70.96;97559.19;4168938;28;6569;-65
2021/12/20 10:40:47;;;;;;;;;;;;;;;0.73;71.61;97554.16;4172635;28;5727;-65
2021/12/20 10:42:53;;;;;;;;;;;;;;;0.82;71.42;97549.09;4176123;28;5753;-65
2021/12/20 10:45:27;;;;;;;;;;;;;;;0.95;71.27;97551.63;4161723;28;5774;-65
2021/12/20 10:47:29;;;;;;;;;;;;;;;1.00;71.20;97540.84;4144328;28;5854;-65
2021/12/20 10:49:31;;;;;;;;;;;;;;;0.99;71.08;97547.81;4144894;28;5946;-65
2021/12/20 10:51:38;;;;;;;;;;;;;;;0.77;71.98;97555.59;4177796;28;5731;-65
2021/12/20 10:53:45;;;;;;;;;;;;;;;0.80;71.97;97543.19;4154819;28;5755;-65
2021/12/20 10:55:56;;;;;;;;;;;;;;;0.78;71.92;97539.84;4174274;28;5859;-65
2021/12/20 10:58:44;;;;;;;;;;;;;;;0.73;72.27;97551.56;4164439;28;5851;-65
2021/12/20 11:01:12;;;;;;;;;;;;;;;0.79;72.34;97546.75;4165176;28;5880;-65
2021/12/20 11:05:23;;;;;;;;;;;;;;;0.88;72.09;97546.03;4181829;28;5826;-65
2021/12/20 11:09:36;;;;;;;;;;;;;;;0.87;72.45;97554.78;4180410;28;6588;-65
2021/12/20 11:11:43;;;;;;;;;;;;;;;0.94;72.56;97554.34;4169158;28;5824;-65
2021/12/20 11:13:46;;;;;;;;;;;;;;;0.91;72.18;97550.19;4154193;28;5845;-65
2021/12/20 11:15:47;;;;;;;;;;;;;;;0.95;72.28;97563.81;4165361;28;5964;-65
2021/12/20 11:17:49;;;;;;;;;;;;;;;0.96;72.16;97548.06;4163139;28;5903;-65
2021/12/20 11:19:53;;;;;;;;;;;;;;;0.64;73.01;97554.84;4175235;28;5826;-66
2021/12/20 11:22:18;;;;;;;;;;;;;;;0.50;73.79;97556.69;4182131;28;5934;-65
2021/12/20 11:24:23;;;;;;;;;;;;;;;0.73;73.34;97551.56;4174029;28;5859;-64
2021/12/20 11:26:24;;;;;;;;;;;;;;;0.77;73.04;97558.19;4165573;28;5808;-65
2021/12/20 11:28:26;;;;;;;;;;;;;;;0.73;73.23;97561.97;4164611;28;5847;-65
2021/12/20 11:30:27;;;;;;;;;;;;;;;0.77;72.68;97543.41;4162824;28;6078;-65
2021/12/20 11:32:30;;;;;;;;;;;;;;;0.75;73.05;97547.06;4148695;28;6014;-65
2021/12/20 11:34:33;;;;;;;;;;;;;;;0.82;72.69;97537.88;4161161;28;5840;-65
2021/12/20 11:36:35;;;;;;;;;;;;;;;0.84;72.88;97534.19;4164044;28;5878;-65
2021/12/20 11:38:37;;;;;;;;;;;;;;;0.67;73.01;97541.59;4164605;28;5832;-65
2021/12/20 11:40:39;;;;;;;;;;;;;;;0.62;73.56;97536.72;4163499;28;5811;-65
2021/12/20 11:42:41;;;;;;;;;;;;;;;0.90;72.84;97534.66;4155890;28;5851;-65
2021/12/20 11:44:46;;;;;;;;;;;;;;;1.03;72.26;97538.88;4176510;28;5950;-65
2021/12/20 11:47:06;;;;;;;;;;;;;;;1.07;72.18;97527.25;4181871;28;5830;-65
2021/12/20 11:49:08;;;;;;;;;;;;;;;1.10;71.74;97528.78;4159672;28;5991;-65
2021/12/20 11:51:10;;;;;;;;;;;;;;;0.76;73.03;97531.31;4181879;28;5814;-65
2021/12/20 11:53:15;;;;;;;;;;;;;;;0.77;73.01;97532.97;4172172;28;5846;-65
2021/12/20 11:55:25;;;;;;;;;;;;;;;1.11;72.49;97538.25;4166619;28;5704;-65
2021/12/20 11:57:28;;;;;;;;;;;;;;;1.19;71.82;97532.47;4155098;28;5758;-66
2021/12/20 11:59:50;;;;;;;;;;;;;;;1.04;72.77;97524.91;4166901;28;5752;-65
2021/12/20 12:02:29;;;;;;;;;;;;;;;1.20;72.46;97528.94;4170959;28;5733;-65
2021/12/20 12:05:05;;;;;;;;;;;;;;;1.29;71.61;97517.81;4170549;28;6398;-65
2021/12/20 12:07:27;;;;;;;;;;;;;;;1.41;71.39;97516.88;4170259;28;5792;-66
2021/12/20 12:10:11;;;;;;;;;;;;;;;1.36;71.49;97513.78;4178881;28;5736;-66
2021/12/20 12:12:23;;;;;;;;;;;;;;;1.40;71.15;97516.03;4169319;28;5088;-66
2021/12/20 12:15:06;;;;;;;;;;;;;;;1.40;71.37;97516.03;4154444;28;5870;-66
2021/12/20 12:17:10;;;;;;;;;;;;;;;1.21;71.80;97509.75;4169623;28;5756;-66
2021/12/20 12:19:42;;;;;;;;;;;;;;;0.97;72.63;97523.69;4169674;28;5736;-66
2021/12/20 12:21:43;;;;;;;;;;;;;;;0.98;72.64;97519.31;4169141;28;5741;-66
2021/12/20 12:23:51;;;;;;;;;;;;;;;1.06;72.96;97511.75;4184628;28;6286;-66
2021/12/20 12:25:56;;;;;;;;;;;;;;;1.08;73.24;97505.47;4182180;28;5737;-66
2021/12/20 12:27:58;;;;;;;;;;;;;;;1.31;72.43;97500.28;4168555;28;6015;-65
2021/12/20 12:30:14;;;;;;;;;;;;;;;1.40;72.17;97504.78;4170817;28;5813;-65
2021/12/20 12:32:16;;;;;;;;;;;;;;;1.26;72.23;97502.44;4169510;28;5824;-65
2021/12/20 12:34:19;;;;;;;;;;;;;;;1.46;72.20;97492.09;4168457;28;5829;-65
2021/12/20 12:36:37;;;;;;;;;;;;;;;1.30;71.62;97498.63;4169802;28;5752;-65
2021/12/20 12:38:45;;;;;;;;;;;;;;;1.32;71.84;97494.13;4140790;28;5871;-65
2021/12/20 12:40:51;;;;;;;;;;;;;;;1.12;72.56;97496.47;4170651;28;5808;-65
2021/12/20 12:42:57;;;;;;;;;;;;;;;1.35;72.32;97496.47;4170811;28;5733;-65
2021/12/20 12:44:58;;;;;;;;;;;;;;;1.29;72.14;97497.81;4170344;28;5749;-65
2021/12/20 12:47:12;;;;;;;;;;;;;;;1.21;72.33;97491.50;4167263;28;6417;-65
2021/12/20 12:49:23;;;;;;;;;;;;;;;1.27;72.56;97493.66;4166859;28;5745;-65
2021/12/20 12:51:25;;;;;;;;;;;;;;;1.12;72.52;97482.63;4167869;28;6705;-65
2021/12/20 12:53:37;;;;;;;;;;;;;;;1.02;73.02;97479.91;4174327;28;5863;-66
2021/12/20 12:55:39;;;;;;;;;;;;;;;0.87;73.73;97476.69;4169105;28;5725;-65
2021/12/20 12:57:42;;;;;;;;;;;;;;;1.00;73.57;97473.97;4159124;28;6099;-65
2021/12/20 12:59:47;;;;;;;;;;;;;;;1.01;73.52;97477.41;4174765;28;5715;-65
2021/12/20 13:01:56;;;;;;;;;;;;;;;1.10;73.22;97476.72;4168153;28;5880;-65
2021/12/20 13:04:01;;;;;;;;;;;;;;;1.10;73.23;97480.16;4165839;28;5749;-65
2021/12/20 13:06:17;;;;;;;;;;;;;;;1.33;72.69;97478.38;4167812;28;5097;-65
2021/12/20 13:08:19;;;;;;;;;;;;;;;1.18;73.09;97471.75;4166630;28;5760;-66
2021/12/20 13:10:31;;;;;;;;;;;;;;;1.30;72.76;97472.56;4171081;28;5960;-66
2021/12/20 13:15:15;;;;;;;;;;;;;;;1.52;72.13;97469.13;4164651;28;5756;-65
2021/12/20 13:17:35;;;;;;;;;;;;;;;1.44;71.84;97478.38;4163304;28;6076;-65
2021/12/20 13:19:38;;;;;;;;;;;;;;;1.54;71.90;97470.66;4167748;28;5800;-64
2021/12/20 13:21:54;;;;;;;;;;;;;;;1.65;71.64;97478.47;4168218;28;5832;-65
2021/12/20 13:23:57;;;;;;;;;;;;;;;1.38;71.50;97478.84;4164821;28;5766;-65
2021/12/20 13:26:05;;;;;;;;;;;;;;;1.42;71.93;97477.66;4167531;28;5704;-65
2021/12/20 13:28:20;;;;;;;;;;;;;;;1.59;71.74;97473.75;4164839;28;6449;-65
2021/12/20 13:30:33;;;;;;;;;;;;;;;1.56;71.23;97479.19;4172494;28;5712;-65
2021/12/20 13:32:34;;;;;;;;;;;;;;;1.44;72.03;97474.94;4151417;28;5921;-65
2021/12/20 13:34:37;;;;;;;;;;;;;;;1.20;72.43;97471.63;4169410;28;5761;-65
2021/12/20 13:36:39;;;;;;;;;;;;;;;1.27;72.65;97483.25;4170324;28;5765;-66
2021/12/20 13:38:48;;;;;;;;;;;;;;;1.22;72.92;97474.94;4161069;28;5869;-65
2021/12/20 13:40:53;;;;;;;;;;;;;;;1.25;72.59;97474.72;4163050;28;5816;-65
2021/12/20 13:42:55;;;;;;;;;;;;;;;1.36;72.29;97472.94;4175241;28;5712;-65
2021/12/20 13:45:10;;;;;;;;;;;;;;;1.31;72.75;97469.03;4166301;28;5915;-65
2021/12/20 13:47:17;;;;;;;;;;;;;;;1.30;72.61;97472.56;4163963;28;6744;-65
2021/12/20 13:49:22;;;;;;;;;;;;;;;1.40;72.90;97474.34;4169851;28;5848;-65
2021/12/20 13:51:48;;;;;;;;;;;;;;;1.25;73.04;97464.31;4167524;28;5714;-65
2021/12/20 13:53:50;;;;;;;;;;;;;;;1.49;72.44;97466.78;4170565;28;5912;-65
2021/12/20 13:55:57;;;;;;;;;;;;;;;1.49;72.12;97467.59;4166986;28;5736;-65
2021/12/20 13:57:59;;;;;;;;;;;;;;;1.35;72.75;97471.25;4157450;28;5769;-65
2021/12/20 14:00:09;;;;;;;;;;;;;;;1.57;72.53;97469.59;4176925;28;5736;-65
2021/12/20 14:02:19;;;;;;;;;;;;;;;1.68;72.17;97467.78;4163848;28;5704;-65
2021/12/20 14:04:26;;;;;;;;;;;;;;;1.44;73.13;97459.28;4163735;28;5662;-65
2021/12/20 14:06:42;;;;;;;;;;;;;;;1.61;72.44;97466.63;4163482;28;5884;-65
2021/12/20 14:08:43;;;;;;;;;;;;;;;1.36;73.20;97462.53;4150374;28;5789;-65
2021/12/20 14:11:18;;;;;;;;;;;;;;;1.35;73.63;97462.63;4173476;28;5649;-65
2021/12/20 14:13:23;;;;;;;;;;;;;;;1.45;73.21;97468.78;4159423;28;5705;-65
2021/12/20 14:15:30;;;;;;;;;;;;;;;1.56;72.70;97465.31;4182242;28;5922;-65
2021/12/20 14:17:55;;;;;;;;;;;;;;;1.30;73.24;97462.97;4186517;28;5949;-66
2021/12/20 14:20:00;;;;;;;;;;;;;;;1.40;73.29;97463.09;4164903;28;5658;-65
2021/12/20 14:22:02;;;;;;;;;;;;;;;1.22;73.88;97464.53;4172552;28;5662;-65
2021/12/20 14:24:04;;;;;;;;;;;;;;;1.28;73.76;97464.06;4176756;28;5643;-65
2021/12/20 14:26:26;;;;;;;;;;;;;;;1.32;73.61;97460.25;4167562;28;5752;-65
2021/12/20 14:28:31;;;;;;;;;;;;;;;1.35;73.53;97465.22;4167341;28;5666;-65
2021/12/20 14:30:53;;;;;;;;;;;;;;;1.52;72.96;97461.31;4167812;28;5756;-65
2021/12/20 14:32:55;;;;;;;;;;;;;;;1.55;73.18;97458.47;4149790;28;5697;-65
2021/12/20 14:34:58;;;;;;;;;;;;;;;1.57;72.84;97457.38;4150961;28;5732;-65
2021/12/20 14:37:13;;;;;;;;;;;;;;;1.46;73.14;97457.41;4169073;28;5686;-65
2021/12/20 14:39:20;;;;;;;;;;;;;;;1.59;72.68;97455.50;4167149;28;5814;-65
2021/12/20 14:41:34;;;;;;;;;;;;;;;1.64;72.76;97455.97;4166707;28;5749;-65
2021/12/20 14:43:36;;;;;;;;;;;;;;;1.66;72.65;97459.28;4130075;28;5688;-65
2021/12/20 14:45:39;;;;;;;;;;;;;;;1.73;72.55;97454.41;4167348;28;5764;-65
2021/12/20 14:47:41;;;;;;;;;;;;;;;1.76;72.34;97451.53;4149797;28;5637;-65
2021/12/20 14:49:59;;;;;;;;;;;;;;;1.75;72.58;97458.53;4148878;28;5717;-65
2021/12/20 14:52:12;;;;;;;;;;;;;;;1.34;73.46;97451.38;4167126;28;5746;-65
2021/12/20 14:54:17;;;;;;;;;;;;;;;1.49;73.30;97457.19;4161772;28;5760;-65
2021/12/20 14:56:18;;;;;;;;;;;;;;;1.57;73.25;97461.75;4145937;28;5762;-65
2021/12/20 14:58:21;;;;;;;;;;;;;;;1.43;73.74;97462.84;4145842;28;5716;-65
2021/12/20 15:00:25;;;;;;;;;;;;;;;1.65;72.88;97444.59;4167305;28;5762;-65
2021/12/20 15:02:36;;;;;;;;;;;;;;;1.72;72.47;97448.38;4166571;28;5757;-65
2021/12/20 15:04:40;;;;;;;;;;;;;;;1.42;72.86;97464.63;4166671;28;5702;-65
2021/12/20 15:06:49;;;;;;;;;;;;;;;1.39;73.21;97469.25;4166439;28;5669;-65
2021/12/20 15:08:51;;;;;;;;;;;;;;;1.42;73.31;97466.41;4133443;28;5114;-65
2021/12/20 15:10:52;;;;;;;;;;;;;;;1.24;74.08;97468.66;4149059;28;5589;-65
2021/12/20 15:12:54;;;;;;;;;;;;;;;1.22;74.01;97467.13;4150657;28;5693;-65
2021/12/20 15:14:56;;;;;;;;;;;;;;;1.35;73.62;97465.22;4133918;28;5700;-65
2021/12/20 15:16:57;;;;;;;;;;;;;;;1.43;73.47;97460.25;4150533;28;5797;-65
2021/12/20 15:19:02;;;;;;;;;;;;;;;1.58;72.94;97458.22;4167569;28;5665;-65
2021/12/20 15:21:04;;;;;;;;;;;;;;;1.49;72.76;97462.38;4170108;28;5056;-65
2021/12/20 15:23:06;;;;;;;;;;;;;;;1.55;72.99;97467.09;4181552;28;7691;-65
2021/12/20 15:25:08;;;;;;;;;;;;;;;1.37;73.35;97464.19;4183419;28;5674;-65
2021/12/20 15:27:11;;;;;;;;;;;;;;;1.39;73.15;97464.88;4167746;28;5036;-66
2021/12/20 15:29:13;;;;;;;;;;;;;;;1.33;73.52;97457.53;4180944;28;5628;-67
2021/12/20 15:31:15;;;;;;;;;;;;;;;0.97;74.88;97462.97;4172606;28;5685;-67
2021/12/20 15:33:17;;;;;;;;;;;;;;;0.88;75.36;97456.69;4186412;28;5752;-67
2021/12/20 15:35:19;;;;;;;;;;;;;;;0.97;75.17;97455.16;4191498;28;5699;-67
2021/12/20 15:37:21;;;;;;;;;;;;;;;1.26;74.13;97455.53;4182184;28;5654;-65
2021/12/20 15:39:25;;;;;;;;;;;;;;;1.38;74.01;97459.78;4205138;28;5621;-66
2021/12/20 15:41:27;;;;;;;;;;;;;;;1.04;74.42;97454.59;4200245;28;5656;-66
2021/12/20 15:43:29;;;;;;;;;;;;;;;1.26;73.83;97456.38;4204653;28;5639;-66
2021/12/20 15:45:32;;;;;;;;;;;;;;;1.37;73.67;97451.16;4189880;28;5661;-66
2021/12/20 15:47:33;;;;;;;;;;;;;;;1.44;73.22;97459.28;4182110;28;5636;-66
2021/12/20 15:49:35;;;;;;;;;;;;;;;1.62;73.00;97457.03;4171088;28;5756;-67
2021/12/20 15:51:48;;;;;;;;;;;;;;;1.65;73.02;97460.22;4194734;28;5734;-66
2021/12/20 15:53:51;;;;;;;;;;;;;;;1.53;72.41;97453.38;4184490;28;5741;-67
2021/12/20 15:55:53;;;;;;;;;;;;;;;1.42;73.37;97456.00;4184590;28;5074;-67
2021/12/20 15:57:57;;;;;;;;;;;;;;;1.42;73.13;97461.19;4150255;28;5782;-67
2021/12/20 15:59:58;;;;;;;;;;;;;;;1.58;72.95;97461.63;4169446;28;6327;-67
2021/12/20 16:02:00;;;;;;;;;;;;;;;1.66;72.57;97459.28;4168267;28;5707;-66
2021/12/20 16:04:02;;;;;;;;;;;;;;;1.65;72.31;97462.00;4199117;28;5644;-67
2021/12/20 16:06:04;;;;;;;;;;;;;;;1.65;72.36;97464.59;4201853;28;5869;-67
2021/12/20 16:08:07;;;;;;;;;;;;;;;1.58;72.45;97461.63;4186352;28;5685;-65
2021/12/20 16:10:24;;;;;;;;;;;;;;;1.24;73.22;97462.63;4181156;28;5692;-65
2021/12/20 16:12:26;;;;;;;;;;;;;;;1.19;73.47;97462.16;4186542;28;5659;-65
2021/12/20 16:14:28;;;;;;;;;;;;;;;0.90;74.83;97470.41;4199231;28;5658;-65
2021/12/20 16:16:29;;;;;;;;;;;;;;;1.10;74.38;97467.13;4191803;28;5722;-66
2021/12/20 16:18:31;;;;;;;;;;;;;;;1.29;73.84;97461.34;4178509;28;6312;-67
2021/12/20 16:20:34;;;;;;;;;;;;;;;1.38;73.35;97462.41;4169160;28;5764;-66
2021/12/20 16:22:36;;;;;;;;;;;;;;;1.44;73.41;97454.09;4165821;28;5646;-66
2021/12/20 16:24:40;;;;;;;;;;;;;;;1.42;73.33;97456.00;4165464;28;6429;-70
2021/12/20 16:26:42;;;;;;;;;;;;;;;1.35;73.52;97462.63;4165907;28;5789;-65
2021/12/20 16:28:44;;;;;;;;;;;;;;;1.34;73.52;97463.56;4196706;28;5754;-65
2021/12/20 16:30:48;;;;;;;;;;;;;;;1.30;73.45;97459.56;4186156;23;5679;-65
2021/12/20 16:32:51;;;;;;;;;;;;;;;1.22;73.82;97464.53;4149939;28;5585;-65
2021/12/20 16:34:53;;;;;;;;;;;;;;;1.39;73.45;97459.66;4162619;28;5687;-65
2021/12/20 16:36:56;;;;;;;;;;;;;;;1.40;73.57;97457.91;4151338;28;5799;-65
2021/12/20 16:38:58;;;;;;;;;;;;;;;1.38;73.56;97465.00;4165950;28;6460;-65
2021/12/20 16:41:00;;;;;;;;;;;;;;;1.33;73.91;97462.75;4167997;28;5653;-65
2021/12/20 16:43:02;;;;;;;;;;;;;;;1.45;73.69;97461.78;4167992;28;5815;-65
2021/12/20 16:45:08;;;;;;;;;;;;;;;1.28;73.76;97469.28;4151237;28;5605;-65
2021/12/20 16:47:37;;;;;;;;;;;;;;;1.25;73.93;97467.75;4168459;28;5740;-64
2021/12/20 16:49:35;;;;;;;;;;;;;;;1.27;73.81;97467.63;4147244;22;5755;-65
2021/12/20 16:51:43;;;;;;;;;;;;;;;1.12;73.84;97462.63;4157487;28;5665;-66
2021/12/20 16:53:45;;;;;;;;;;;;;;;1.17;74.00;97457.91;4144679;28;5683;-65
2021/12/20 16:55:51;;;;;;;;;;;;;;;1.19;73.85;97456.94;4145709;28;5762;-64
2021/12/20 16:57:57;;;;;;;;;;;;;;;0.97;74.26;97458.59;4139662;28;5821;-66
2021/12/20 17:00:00;;;;;;;;;;;;;;;0.86;74.36;97453.38;4158583;28;5734;-66
2021/12/20 17:02:05;;;;;;;;;;;;;;;0.73;74.72;97457.88;4149523;28;5766;-66
2021/12/20 17:06:11;;;;;;;;;;;;;;;0.88;74.19;97451.47;4151314;28;5896;-66
2021/12/20 17:08:18;;;;;;;;;;;;;;;0.82;74.65;97457.16;4162005;28;5868;-66
2021/12/20 17:10:20;;;;;;;;;;;;;;;0.72;74.65;97459.63;4157078;28;5931;-65
2021/12/20 17:12:22;;;;;;;;;;;;;;;0.52;75.41;97461.13;4145712;28;5995;-65
2021/12/20 17:14:26;;;;;;;;;;;;;;;0.67;75.11;97461.75;4149954;28;6652;-65
2021/12/20 17:16:32;;;;;;;;;;;;;;;0.85;74.76;97457.75;4151214;28;5993;-66
2021/12/20 17:18:39;;;;;;;;;;;;;;;0.83;74.92;97466.63;4163509;28;6651;-65
2021/12/20 17:20:43;;;;;;;;;;;;;;;0.68;75.17;97465.16;4167489;28;5828;-66
2021/12/20 17:22:45;;;;;;;;;;;;;;;0.70;75.12;97460.69;4151553;28;5865;-65
2021/12/20 17:24:47;;;;;;;;;;;;;;;0.83;74.50;97458.81;4149491;28;5909;-66
2021/12/20 17:26:50;;;;;;;;;;;;;;;0.81;74.57;97458.94;4145428;28;5874;-66
2021/12/20 17:28:53;;;;;;;;;;;;;;;0.86;74.42;97454.22;4146396;28;5854;-66
2021/12/20 17:30:56;;;;;;;;;;;;;;;0.55;75.30;97460.88;4145034;28;5859;-65
2021/12/20 17:32:59;;;;;;;;;;;;;;;0.70;74.87;97458.94;4133053;28;5841;-65
2021/12/20 17:35:01;;;;;;;;;;;;;;;0.55;75.17;97455.69;4148051;28;5947;-65
2021/12/20 17:37:05;;;;;;;;;;;;;;;0.37;75.90;97457.06;4147463;28;5762;-65
2021/12/20 17:39:07;;;;;;;;;;;;;;;0.55;75.25;97452.25;4133722;28;5933;-66
2021/12/20 17:41:10;;;;;;;;;;;;;;;0.57;74.44;97459.03;4133041;28;5779;-66
2021/12/20 17:43:12;;;;;;;;;;;;;;;0.54;74.20;97448.81;4137568;28;5913;-68
2021/12/20 17:45:16;;;;;;;;;;;;;;;0.16;75.13;97463.84;4135118;28;5922;-66
2021/12/20 17:47:24;;;;;;;;;;;;;;;0.07;75.39;97459.31;4158336;28;5865;-63
2021/12/20 17:49:26;;;;;;;;;;;;;;;0.31;74.86;97462.72;4149559;28;5084;-66
2021/12/20 17:51:29;;;;;;;;;;;;;;;0.28;74.13;97468.16;4158669;28;5573;-66
2021/12/20 17:53:31;;;;;;;;;;;;;;;0.30;73.79;97461.06;4148996;28;5683;-66
2021/12/20 17:55:34;;;;;;;;;;;;;;;0.16;73.87;97469.88;4182499;28;5634;-64
2021/12/20 17:57:38;;;;;;;;;;;;;;;0.04;74.71;97472.53;4166001;28;5645;-64
2021/12/20 17:59:40;;;;;;;;;;;;;;;0.06;74.20;97474.09;4160593;28;5585;-64
2021/12/20 18:02:00;;;;;;;;;;;;;;;0.08;74.73;97471.38;4152385;28;5576;-64
2021/12/20 18:04:02;;;;;;;;;;;;;;;-0.06;75.04;97470.59;4144032;28;5807;-64
2021/12/20 18:06:06;;;;;;;;;;;;;;;-0.05;75.58;97471.44;4177099;28;5765;-65
2021/12/20 18:08:26;;;;;;;;;;;;;;;-0.06;75.51;97462.81;4184047;28;5659;-64
2021/12/20 18:10:28;;;;;;;;;;;;;;;-0.07;75.38;97463.75;4159334;28;5111;-65
2021/12/20 18:12:33;;;;;;;;;;;;;;;0.03;75.50;97461.31;4147920;28;7707;-65
2021/12/20 18:14:35;;;;;;;;;;;;;;;0.18;74.98;97456.75;4184748;28;5646;-64
2021/12/20 18:16:37;;;;;;;;;;;;;;;0.28;74.68;97460.34;4165968;28;5582;-65
2021/12/20 18:18:44;;;;;;;;;;;;;;;0.26;74.77;97464.84;4178008;28;5661;-65
2021/12/20 18:20:47;;;;;;;;;;;;;;;0.42;74.45;97454.13;4166810;28;5613;-64
2021/12/20 18:23:02;;;;;;;;;;;;;;;0.15;75.06;97460.41;4150370;28;5838;-64
2021/12/20 18:25:06;;;;;;;;;;;;;;;0.34;74.49;97457.31;4149294;28;5604;-65
2021/12/20 18:27:08;;;;;;;;;;;;;;;0.21;75.04;97466.94;4162418;28;5633;-65
2021/12/20 18:29:10;;;;;;;;;;;;;;;0.21;75.30;97469.53;4178529;28;5542;-65
2021/12/20 18:31:13;;;;;;;;;;;;;;;0.41;74.90;97460.25;4161580;28;6030;-65
2021/12/20 18:33:15;;;;;;;;;;;;;;;0.51;74.18;97464.66;4159118;28;6503;-64
2021/12/20 18:35:17;;;;;;;;;;;;;;;0.48;74.37;97458.88;4164616;28;7703;-64
2021/12/20 18:37:26;;;;;;;;;;;;;;;0.51;73.96;97464.66;4183501;28;5832;-64
2021/12/20 18:39:29;;;;;;;;;;;;;;;0.68;73.75;97458.22;4181469;28;6319;-64
2021/12/20 18:41:31;;;;;;;;;;;;;;;0.70;73.77;97458.94;4184666;28;5546;-64
2021/12/20 18:43:33;;;;;;;;;;;;;;;0.58;74.27;97465.88;4174783;28;5749;-65
2021/12/20 18:45:34;;;;;;;;;;;;;;;0.62;74.15;97460.44;4162086;28;5599;-64